sensor_id;sensor_type;location;lat;lon;timestamp;pressure;altitude;pressure_sealevel;temperature;humidity
85224;BME280;75619;51.316;4.824;2024-02-04T00:01:41;102265.50;;;9.62;100.00
85224;BME280;75619;51.316;4.824;2024-02-04T00:04:13;102268.78;;;9.67;100.00
85224;BME280;75619;51.316;4.824;2024-02-04T00:06:45;102269.69;;;9.66;100.00
85224;BME280;75619;51.316;4.824;2024-02-04T00:09:17;102268.88;;;9.66;100.00
85224;BME280;75619;51.316;4.824;2024-02-04T00:11:50;102273.97;;;9.69;100.00
85224;BME280;75619;51.316;4.824;2024-02-04T00:14:46;102275.84;;;9.67;100.00
85224;BME280;75619;51.316;4.824;2024-02-04T00:17:17;102280.13;;;9.69;100.00
85224;BME280;75619;51.316;4.824;2024-02-04T00:19:52;102276.72;;;9.67;100.00
85224;BME280;75619;51.316;4.824;2024-02-04T00:22:26;102273.00;;;9.71;100.00
85224;BME280;75619;51.316;4.824;2024-02-04T00:24:56;102274.06;;;9.67;100.00
85224;BME280;75619;51.316;4.824;2024-02-04T00:27:32;102280.91;;;9.71;100.00
85224;BME280;75619;51.316;4.824;2024-02-04T00:30:06;102275.75;;;9.68;100.00
85224;BME280;75619;51.316;4.824;2024-02-04T00:32:41;102275.72;;;9.70;100.00
85224;BME280;75619;51.316;4.824;2024-02-04T00:35:09;102272.91;;;9.73;100.00
85224;BME280;75619;51.316;4.824;2024-02-04T00:37:37;102274.56;;;9.75;100.00
85224;BME280;75619;51.316;4.824;2024-02-04T00:40:07;102277.06;;;9.78;100.00
85224;BME280;75619;51.316;4.824;2024-02-04T00:42:42;102276.88;;;9.82;100.00
85224;BME280;75619;51.316;4.824;2024-02-04T00:45:09;102282.09;;;9.83;100.00
85224;BME280;75619;51.316;4.824;2024-02-04T00:47:36;102279.63;;;9.80;100.00
85224;BME280;75619;51.316;4.824;2024-02-04T00:50:02;102287.44;;;9.82;100.00
85224;BME280;75619;51.316;4.824;2024-02-04T00:52:29;102283.91;;;9.83;100.00
85224;BME280;75619;51.316;4.824;2024-02-04T00:55:00;102280.31;;;9.84;100.00
85224;BME280;75619;51.316;4.824;2024-02-04T00:57:39;102278.44;;;9.86;100.00
85224;BME280;75619;51.316;4.824;2024-02-04T01:00:12;102272.47;;;9.82;100.00
85224;BME280;75619;51.316;4.824;2024-02-04T01:02:39;102274.91;;;9.87;100.00
85224;BME280;75619;51.316;4.824;2024-02-04T01:05:09;102270.44;;;9.87;100.00
85224;BME280;75619;51.316;4.824;2024-02-04T01:07:49;102270.53;;;9.86;100.00
85224;BME280;75619;51.316;4.824;2024-02-04T01:10:31;102270.53;;;9.86;100.00
85224;BME280;75619;51.316;4.824;2024-02-04T01:13:03;102267.81;;;9.87;100.00
85224;BME280;75619;51.316;4.824;2024-02-04T01:15:29;102254.38;;;9.92;100.00
85224;BME280;75619;51.316;4.824;2024-02-04T01:17:59;102252.72;;;9.89;100.00
85224;BME280;75619;51.316;4.824;2024-02-04T01:20:27;102258.00;;;9.89;100.00
85224;BME280;75619;51.316;4.824;2024-02-04T01:22:57;102242.81;;;9.94;100.00
85224;BME280;75619;51.316;4.824;2024-02-04T01:25:28;102234.88;;;9.94;100.00
85224;BME280;75619;51.316;4.824;2024-02-04T01:27:59;102233.09;;;9.95;100.00
85224;BME280;75619;51.316;4.824;2024-02-04T01:30:31;102238.44;;;9.93;100.00
85224;BME280;75619;51.316;4.824;2024-02-04T01:33:16;102242.72;;;9.96;100.00
85224;BME280;75619;51.316;4.824;2024-02-04T01:35:42;102241.63;;;10.00;100.00
85224;BME280;75619;51.316;4.824;2024-02-04T01:38:18;102243.44;;;9.99;100.00
85224;BME280;75619;51.316;4.824;2024-02-04T01:40:53;102246.09;;;9.99;100.00
85224;BME280;75619;51.316;4.824;2024-02-04T01:43:32;102250.59;;;9.97;100.00
85224;BME280;75619;51.316;4.824;2024-02-04T01:46:20;102249.66;;;9.98;100.00
85224;BME280;75619;51.316;4.824;2024-02-04T01:48:55;102254.06;;;9.98;100.00
85224;BME280;75619;51.316;4.824;2024-02-04T01:51:29;102253.06;;;10.00;100.00
85224;BME280;75619;51.316;4.824;2024-02-04T01:53:58;102261.94;;;9.99;100.00
85224;BME280;75619;51.316;4.824;2024-02-04T01:56:36;102264.50;;;10.01;100.00
85224;BME280;75619;51.316;4.824;2024-02-04T01:59:03;102256.34;;;10.05;100.00
85224;BME280;75619;51.316;4.824;2024-02-04T02:01:43;102249.56;;;10.00;100.00
85224;BME280;75619;51.316;4.824;2024-02-04T02:04:15;102250.66;;;9.96;100.00
85224;BME280;75619;51.316;4.824;2024-02-04T02:06:53;102251.72;;;9.92;100.00
85224;BME280;75619;51.316;4.824;2024-02-04T02:09:22;102248.00;;;9.96;100.00
85224;BME280;75619;51.316;4.824;2024-02-04T02:12:03;102246.53;;;9.90;100.00
85224;BME280;75619;51.316;4.824;2024-02-04T02:14:40;102243.13;;;9.88;100.00
85224;BME280;75619;51.316;4.824;2024-02-04T02:17:10;102242.16;;;9.89;100.00
85224;BME280;75619;51.316;4.824;2024-02-04T02:22:31;102255.75;;;9.82;100.00
85224;BME280;75619;51.316;4.824;2024-02-04T02:25:03;102257.50;;;9.83;100.00
85224;BME280;75619;51.316;4.824;2024-02-04T02:27:33;102252.81;;;9.88;100.00
85224;BME280;75619;51.316;4.824;2024-02-04T02:30:06;102247.63;;;9.86;100.00
85224;BME280;75619;51.316;4.824;2024-02-04T02:32:41;102245.75;;;9.88;100.00
85224;BME280;75619;51.316;4.824;2024-02-04T02:35:11;102252.59;;;9.92;100.00
85224;BME280;75619;51.316;4.824;2024-02-04T02:40:39;102254.75;;;9.84;100.00
85224;BME280;75619;51.316;4.824;2024-02-04T02:43:33;102247.84;;;9.82;100.00
85224;BME280;75619;51.316;4.824;2024-02-04T02:46:00;102252.44;;;9.78;100.00
85224;BME280;75619;51.316;4.824;2024-02-04T02:48:27;102249.91;;;9.75;100.00
85224;BME280;75619;51.316;4.824;2024-02-04T02:50:53;102253.28;;;9.78;100.00
85224;BME280;75619;51.316;4.824;2024-02-04T02:53:19;102250.47;;;9.82;100.00
85224;BME280;75619;51.316;4.824;2024-02-04T02:55:45;102261.25;;;9.77;100.00
85224;BME280;75619;51.316;4.824;2024-02-04T02:58:12;102257.25;;;9.87;100.00
85224;BME280;75619;51.316;4.824;2024-02-04T03:00:38;102252.81;;;9.88;100.00
85224;BME280;75619;51.316;4.824;2024-02-04T03:03:03;102258.88;;;9.90;100.00
85224;BME280;75619;51.316;4.824;2024-02-04T03:05:29;102253.69;;;9.88;100.00
85224;BME280;75619;51.316;4.824;2024-02-04T03:07:55;102248.97;;;9.95;100.00
85224;BME280;75619;51.316;4.824;2024-02-04T03:10:20;102246.38;;;9.93;100.00
85224;BME280;75619;51.316;4.824;2024-02-04T03:12:46;102248.09;;;9.94;100.00
85224;BME280;75619;51.316;4.824;2024-02-04T03:15:11;102246.22;;;9.96;100.00
85224;BME280;75619;51.316;4.824;2024-02-04T03:17:37;102246.31;;;9.95;100.00
85224;BME280;75619;51.316;4.824;2024-02-04T03:20:03;102240.09;;;9.96;100.00
85224;BME280;75619;51.316;4.824;2024-02-04T03:22:28;102238.22;;;9.98;100.00
85224;BME280;75619;51.316;4.824;2024-02-04T03:24:54;102235.53;;;9.99;100.00
85224;BME280;75619;51.316;4.824;2024-02-04T03:27:20;102235.56;;;9.98;100.00
85224;BME280;75619;51.316;4.824;2024-02-04T03:29:45;102216.78;;;10.04;100.00
85224;BME280;75619;51.316;4.824;2024-02-04T03:32:11;102217.88;;;10.00;100.00
85224;BME280;75619;51.316;4.824;2024-02-04T03:34:37;102223.22;;;9.98;100.00
85224;BME280;75619;51.316;4.824;2024-02-04T03:37:03;102231.25;;;9.97;100.00
85224;BME280;75619;51.316;4.824;2024-02-04T03:39:28;102230.25;;;9.99;100.00
85224;BME280;75619;51.316;4.824;2024-02-04T03:41:54;102224.19;;;9.97;100.00
85224;BME280;75619;51.316;4.824;2024-02-04T03:44:19;102223.22;;;9.98;100.00
85224;BME280;75619;51.316;4.824;2024-02-04T03:46:49;102204.81;;;9.97;100.00
85224;BME280;75619;51.316;4.824;2024-02-04T03:49:15;102222.59;;;9.93;100.00
85224;BME280;75619;51.316;4.824;2024-02-04T03:51:41;102232.09;;;9.97;100.00
85224;BME280;75619;51.316;4.824;2024-02-04T03:54:07;102230.28;;;9.98;100.00
85224;BME280;75619;51.316;4.824;2024-02-04T03:56:32;102235.75;;;9.95;100.00
85224;BME280;75619;51.316;4.824;2024-02-04T03:58:57;102224.22;;;9.96;100.00
85224;BME280;75619;51.316;4.824;2024-02-04T04:01:23;102217.88;;;10.00;100.00
85224;BME280;75619;51.316;4.824;2024-02-04T04:03:49;102223.22;;;9.98;100.00
85224;BME280;75619;51.316;4.824;2024-02-04T04:06:15;102226.97;;;9.94;100.00
85224;BME280;75619;51.316;4.824;2024-02-04T04:08:40;102221.75;;;9.93;100.00
85224;BME280;75619;51.316;4.824;2024-02-04T04:11:08;102218.25;;;9.92;100.00
85224;BME280;75619;51.316;4.824;2024-02-04T04:13:34;102219.13;;;9.93;100.00
85224;BME280;75619;51.316;4.824;2024-02-04T04:16:00;102213.75;;;9.94;100.00
85224;BME280;75619;51.316;4.824;2024-02-04T04:18:26;102218.13;;;9.95;100.00
85224;BME280;75619;51.316;4.824;2024-02-04T04:20:52;102225.22;;;9.93;100.00
85224;BME280;75619;51.316;4.824;2024-02-04T04:23:17;102233.03;;;9.96;100.00
85224;BME280;75619;51.316;4.824;2024-02-04T04:25:43;102233.09;;;9.95;100.00
85224;BME280;75619;51.316;4.824;2024-02-04T04:28:08;102240.31;;;9.91;100.00
85224;BME280;75619;51.316;4.824;2024-02-04T04:30:34;102235.09;;;9.90;100.00
85224;BME280;75619;51.316;4.824;2024-02-04T04:32:59;102227.28;;;9.88;100.00
85224;BME280;75619;51.316;4.824;2024-02-04T04:35:25;102224.53;;;9.90;100.00
85224;BME280;75619;51.316;4.824;2024-02-04T04:37:50;102224.31;;;9.94;100.00
85224;BME280;75619;51.316;4.824;2024-02-04T04:40:16;102211.03;;;9.96;100.00
85224;BME280;75619;51.316;4.824;2024-02-04T04:42:41;102209.94;;;10.00;100.00
85224;BME280;75619;51.316;4.824;2024-02-04T04:45:07;102203.09;;;9.96;100.00
85224;BME280;75619;51.316;4.824;2024-02-04T04:47:34;102190.63;;;9.99;100.00
85224;BME280;75619;51.316;4.824;2024-02-04T04:49:59;102182.19;;;10.08;100.00
85224;BME280;75619;51.316;4.824;2024-02-04T04:52:25;102171.09;;;10.02;100.00
85224;BME280;75619;51.316;4.824;2024-02-04T04:54:50;102184.84;;;10.08;100.00
85224;BME280;75619;51.316;4.824;2024-02-04T04:57:16;102193.72;;;10.07;100.00
85224;BME280;75619;51.316;4.824;2024-02-04T04:59:42;102192.41;;;9.99;100.00
85224;BME280;75619;51.316;4.824;2024-02-04T05:02:08;102193.16;;;10.01;100.00
85224;BME280;75619;51.316;4.824;2024-02-04T05:04:33;102185.56;;;9.95;100.00
85224;BME280;75619;51.316;4.824;2024-02-04T05:06:59;102184.69;;;9.94;100.00
85224;BME280;75619;51.316;4.824;2024-02-04T05:09:24;102185.25;;;10.01;100.00
85224;BME280;75619;51.316;4.824;2024-02-04T05:11:50;102188.13;;;9.96;100.00
85224;BME280;75619;51.316;4.824;2024-02-04T05:14:15;102187.97;;;9.99;100.00
85224;BME280;75619;51.316;4.824;2024-02-04T05:16:41;102186.03;;;10.03;100.00
85224;BME280;75619;51.316;4.824;2024-02-04T05:19:09;102195.50;;;10.07;100.00
85224;BME280;75619;51.316;4.824;2024-02-04T05:21:38;102189.75;;;9.99;100.00
85224;BME280;75619;51.316;4.824;2024-02-04T05:24:04;102184.25;;;10.03;100.00
85224;BME280;75619;51.316;4.824;2024-02-04T05:26:30;102176.47;;;10.00;100.00
85224;BME280;75619;51.316;4.824;2024-02-04T05:28:55;102189.56;;;10.02;100.00
85224;BME280;75619;51.316;4.824;2024-02-04T05:31:21;102185.94;;;10.04;100.00
85224;BME280;75619;51.316;4.824;2024-02-04T05:33:47;102192.84;;;10.07;100.00
85224;BME280;75619;51.316;4.824;2024-02-04T05:36:12;102188.50;;;10.06;100.00
85224;BME280;75619;51.316;4.824;2024-02-04T05:38:38;102191.38;;;10.01;100.00
85224;BME280;75619;51.316;4.824;2024-02-04T05:41:03;102198.00;;;9.93;100.00
85224;BME280;75619;51.316;4.824;2024-02-04T05:43:29;102196.13;;;9.95;100.00
85224;BME280;75619;51.316;4.824;2024-02-04T05:45:54;102194.88;;;10.02;100.00
85224;BME280;75619;51.316;4.824;2024-02-04T05:48:20;102193.47;;;9.95;100.00
85224;BME280;75619;51.316;4.824;2024-02-04T05:50:46;102196.03;;;9.96;100.00
85224;BME280;75619;51.316;4.824;2024-02-04T05:53:11;102182.91;;;9.95;100.00
85224;BME280;75619;51.316;4.824;2024-02-04T05:55:36;102182.91;;;9.95;100.00
85224;BME280;75619;51.316;4.824;2024-02-04T05:58:02;102183.84;;;9.94;100.00
85224;BME280;75619;51.316;4.824;2024-02-04T06:00:28;102182.38;;;9.88;100.00
85224;BME280;75619;51.316;4.824;2024-02-04T06:02:54;102180.31;;;9.93;100.00
85224;BME280;75619;51.316;4.824;2024-02-04T06:05:20;102179.56;;;9.91;100.00
85224;BME280;75619;51.316;4.824;2024-02-04T06:07:46;102179.41;;;9.94;100.00
85224;BME280;75619;51.316;4.824;2024-02-04T06:10:11;102172.66;;;9.89;100.00
85224;BME280;75619;51.316;4.824;2024-02-04T06:12:37;102174.03;;;9.96;100.00
85224;BME280;75619;51.316;4.824;2024-02-04T06:15:11;102173.34;;;9.92;100.00
85224;BME280;75619;51.316;4.824;2024-02-04T06:17:37;102176.78;;;9.94;100.00
85224;BME280;75619;51.316;4.824;2024-02-04T06:20:03;102174.53;;;9.87;100.00
85224;BME280;75619;51.316;4.824;2024-02-04T06:22:29;102170.16;;;9.86;100.00
85224;BME280;75619;51.316;4.824;2024-02-04T06:24:54;102174.53;;;9.87;100.00
85224;BME280;75619;51.316;4.824;2024-02-04T06:27:20;102161.16;;;9.90;100.00
85224;BME280;75619;51.316;4.824;2024-02-04T06:29:45;102163.66;;;9.93;100.00
85224;BME280;75619;51.316;4.824;2024-02-04T06:32:11;102164.97;;;9.84;100.00
85224;BME280;75619;51.316;4.824;2024-02-04T06:34:37;102166.59;;;9.87;100.00
85224;BME280;75619;51.316;4.824;2024-02-04T06:37:02;102164.34;;;9.79;100.00
85224;BME280;75619;51.316;4.824;2024-02-04T06:39:28;102166.28;;;9.75;100.00
85224;BME280;75619;51.316;4.824;2024-02-04T06:41:53;102166.41;;;9.72;100.00
85224;BME280;75619;51.316;4.824;2024-02-04T06:44:19;102160.13;;;9.75;100.00
85224;BME280;75619;51.316;4.824;2024-02-04T06:46:45;102156.81;;;9.71;100.00
85224;BME280;75619;51.316;4.824;2024-02-04T06:49:10;102161.41;;;9.68;100.00
85224;BME280;75619;51.316;4.824;2024-02-04T06:51:36;102164.88;;;9.68;100.00
85224;BME280;75619;51.316;4.824;2024-02-04T06:54:01;102161.09;;;9.74;100.00
85224;BME280;75619;51.316;4.824;2024-02-04T06:56:27;102156.50;;;9.77;100.00
85224;BME280;75619;51.316;4.824;2024-02-04T06:58:53;102162.22;;;9.68;100.00
85224;BME280;75619;51.316;4.824;2024-02-04T07:01:18;102155.25;;;9.67;100.00
85224;BME280;75619;51.316;4.824;2024-02-04T07:03:44;102146.47;;;9.67;100.00
85224;BME280;75619;51.316;4.824;2024-02-04T07:06:10;102153.53;;;9.66;100.00
85224;BME280;75619;51.316;4.824;2024-02-04T07:08:35;102154.25;;;9.70;100.00
85224;BME280;75619;51.316;4.824;2024-02-04T07:11:01;102166.50;;;9.71;100.00
85224;BME280;75619;51.316;4.824;2024-02-04T07:13:27;102164.03;;;9.68;100.00
85224;BME280;75619;51.316;4.824;2024-02-04T07:15:52;102181.56;;;9.69;100.00
85224;BME280;75619;51.316;4.824;2024-02-04T07:18:19;102174.44;;;9.71;100.00
85224;BME280;75619;51.316;4.824;2024-02-04T07:20:47;102176.19;;;9.70;100.00
85224;BME280;75619;51.316;4.824;2024-02-04T07:23:13;102165.81;;;9.67;100.00
85224;BME280;75619;51.316;4.824;2024-02-04T07:25:39;102170.16;;;9.68;100.00
85224;BME280;75619;51.316;4.824;2024-02-04T07:28:04;102165.50;;;9.73;100.00
85224;BME280;75619;51.316;4.824;2024-02-04T07:30:30;102157.44;;;9.76;100.00
85224;BME280;75619;51.316;4.824;2024-02-04T07:32:55;102157.28;;;9.79;100.00
85224;BME280;75619;51.316;4.824;2024-02-04T07:35:21;102162.63;;;9.78;100.00
85224;BME280;75619;51.316;4.824;2024-02-04T07:37:46;102165.38;;;9.76;100.00
85224;BME280;75619;51.316;4.824;2024-02-04T07:40:12;102154.72;;;9.78;100.00
85224;BME280;75619;51.316;4.824;2024-02-04T07:42:38;102162.56;;;9.79;100.00
85224;BME280;75619;51.316;4.824;2024-02-04T07:45:03;102154.81;;;9.76;100.00
85224;BME280;75619;51.316;4.824;2024-02-04T07:47:34;102159.13;;;9.77;100.00
85224;BME280;75619;51.316;4.824;2024-02-04T07:50:00;102159.50;;;9.87;100.00
85224;BME280;75619;51.316;4.824;2024-02-04T07:52:25;102164.88;;;9.86;100.00
85224;BME280;75619;51.316;4.824;2024-02-04T07:54:51;102162.00;;;9.90;100.00
85224;BME280;75619;51.316;4.824;2024-02-04T07:57:16;102161.06;;;9.91;100.00
85224;BME280;75619;51.316;4.824;2024-02-04T07:59:42;102158.50;;;9.90;100.00
85224;BME280;75619;51.316;4.824;2024-02-04T08:02:07;102168.06;;;9.92;100.00
85224;BME280;75619;51.316;4.824;2024-02-04T08:04:33;102160.00;;;9.95;100.00
85224;BME280;75619;51.316;4.824;2024-02-04T08:06:58;102161.94;;;9.92;100.00
85224;BME280;75619;51.316;4.824;2024-02-04T08:09:24;102153.88;;;9.95;100.00
85224;BME280;75619;51.316;4.824;2024-02-04T08:11:50;102145.47;;;9.87;100.00
85224;BME280;75619;51.316;4.824;2024-02-04T08:14:15;102139.41;;;9.85;100.00
85224;BME280;75619;51.316;4.824;2024-02-04T08:16:43;102132.19;;;9.88;100.00
85224;BME280;75619;51.316;4.824;2024-02-04T08:19:08;102130.88;;;9.97;100.00
85224;BME280;75619;51.316;4.824;2024-02-04T08:21:34;102132.78;;;9.93;100.00
85224;BME280;75619;51.316;4.824;2024-02-04T08:23:59;102146.94;;;9.92;100.00
85224;BME280;75619;51.316;4.824;2024-02-04T08:26:25;102142.56;;;9.91;100.00
85224;BME280;75619;51.316;4.824;2024-02-04T08:28:50;102138.94;;;9.94;100.00
85224;BME280;75619;51.316;4.824;2024-02-04T08:31:16;102130.13;;;9.93;100.00
85224;BME280;75619;51.316;4.824;2024-02-04T08:33:42;102142.34;;;9.96;100.00
85224;BME280;75619;51.316;4.824;2024-02-04T08:36:07;102142.66;;;10.07;100.00
85224;BME280;75619;51.316;4.824;2024-02-04T08:38:36;102149.81;;;10.05;100.00
85224;BME280;75619;51.316;4.824;2024-02-04T08:41:02;102151.69;;;10.03;100.00
85224;BME280;75619;51.316;4.824;2024-02-04T08:43:28;102151.34;;;10.09;100.00
85224;BME280;75619;51.316;4.824;2024-02-04T08:45:54;102164.81;;;10.04;100.00
85224;BME280;75619;51.316;4.824;2024-02-04T08:48:19;102153.03;;;10.10;100.00
85224;BME280;75619;51.316;4.824;2024-02-04T08:50:45;102144.25;;;10.11;100.00
85224;BME280;75619;51.316;4.824;2024-02-04T08:53:10;102150.41;;;10.10;100.00
85224;BME280;75619;51.316;4.824;2024-02-04T08:55:39;102159.13;;;10.12;100.00
85224;BME280;75619;51.316;4.824;2024-02-04T08:58:05;102153.81;;;10.13;100.00
85224;BME280;75619;51.316;4.824;2024-02-04T09:00:31;102160.78;;;10.14;100.00
85224;BME280;75619;51.316;4.824;2024-02-04T09:02:57;102174.72;;;10.18;100.00
85224;BME280;75619;51.316;4.824;2024-02-04T09:05:23;102165.50;;;10.25;100.00
85224;BME280;75619;51.316;4.824;2024-02-04T09:07:48;102175.16;;;10.26;100.00
85224;BME280;75619;51.316;4.824;2024-02-04T09:10:14;102170.47;;;10.31;100.00
85224;BME280;75619;51.316;4.824;2024-02-04T09:12:40;102165.91;;;10.34;100.00
85224;BME280;75619;51.316;4.824;2024-02-04T09:15:05;102165.19;;;10.31;100.00
85224;BME280;75619;51.316;4.824;2024-02-04T09:17:31;102173.13;;;10.31;100.00
85224;BME280;75619;51.316;4.824;2024-02-04T09:20:00;102161.44;;;10.35;100.00
85224;BME280;75619;51.316;4.824;2024-02-04T09:22:26;102157.38;;;10.45;100.00
85224;BME280;75619;51.316;4.824;2024-02-04T09:24:51;102152.09;;;10.45;100.00
85224;BME280;75619;51.316;4.824;2024-02-04T09:27:17;102146.75;;;10.46;100.00
85224;BME280;75619;51.316;4.824;2024-02-04T09:29:42;102143.31;;;10.44;100.00
85224;BME280;75619;51.316;4.824;2024-02-04T09:32:08;102144.16;;;10.45;100.00
85224;BME280;75619;51.316;4.824;2024-02-04T09:34:33;102135.16;;;10.49;100.00
85224;BME280;75619;51.316;4.824;2024-02-04T09:36:59;102141.38;;;10.48;100.00
85224;BME280;75619;51.316;4.824;2024-02-04T09:39:25;102144.69;;;10.51;100.00
85224;BME280;75619;51.316;4.824;2024-02-04T09:41:50;102143.19;;;10.63;100.00
85224;BME280;75619;51.316;4.824;2024-02-04T09:44:16;102137.72;;;10.66;100.00
85224;BME280;75619;51.316;4.824;2024-02-04T09:46:42;102119.22;;;10.66;100.00
85224;BME280;75619;51.316;4.824;2024-02-04T09:49:09;102123.28;;;10.56;100.00
85224;BME280;75619;51.316;4.824;2024-02-04T09:51:36;102123.38;;;10.70;100.00
85224;BME280;75619;51.316;4.824;2024-02-04T09:54:04;102133.13;;;10.70;100.00
85224;BME280;75619;51.316;4.824;2024-02-04T09:56:32;102132.44;;;10.66;100.00
85224;BME280;75619;51.316;4.824;2024-02-04T09:58:58;102147.03;;;10.73;100.00
85224;BME280;75619;51.316;4.824;2024-02-04T10:01:24;102147.13;;;10.72;100.00
85224;BME280;75619;51.316;4.824;2024-02-04T10:03:50;102153.00;;;10.77;100.00
85224;BME280;75619;51.316;4.824;2024-02-04T10:06:16;102143.63;;;10.71;100.00
85224;BME280;75619;51.316;4.824;2024-02-04T10:08:42;102139.88;;;10.75;100.00
85224;BME280;75619;51.316;4.824;2024-02-04T10:11:08;102144.56;;;10.70;100.00
85224;BME280;75619;51.316;4.824;2024-02-04T10:13:48;102124.25;;;10.71;100.00
85224;BME280;75619;51.316;4.824;2024-02-04T10:16:14;102122.03;;;10.63;100.00
85224;BME280;75619;51.316;4.824;2024-02-04T10:18:47;102127.47;;;10.60;100.00
85224;BME280;75619;51.316;4.824;2024-02-04T10:21:18;102132.84;;;10.58;100.00
85224;BME280;75619;51.316;4.824;2024-02-04T10:23:48;102128.00;;;10.51;100.00
85224;BME280;75619;51.316;4.824;2024-02-04T10:26:14;102123.53;;;10.51;100.00
85224;BME280;75619;51.316;4.824;2024-02-04T10:28:40;102132.25;;;10.53;100.00
85224;BME280;75619;51.316;4.824;2024-02-04T10:31:09;102134.31;;;10.64;100.00
85224;BME280;75619;51.316;4.824;2024-02-04T10:33:37;102144.34;;;10.57;100.00
85224;BME280;75619;51.316;4.824;2024-02-04T10:36:04;102146.06;;;10.58;100.00
85224;BME280;75619;51.316;4.824;2024-02-04T10:38:30;102145.13;;;10.59;100.00
85224;BME280;75619;51.316;4.824;2024-02-04T10:40:59;102139.59;;;10.64;100.00
85224;BME280;75619;51.316;4.824;2024-02-04T10:43:33;102142.84;;;10.69;100.00
85224;BME280;75619;51.316;4.824;2024-02-04T10:46:08;102148.69;;;10.76;100.00
85224;BME280;75619;51.316;4.824;2024-02-04T10:48:36;102140.66;;;10.77;100.00
85224;BME280;75619;51.316;4.824;2024-02-04T10:51:13;102123.06;;;10.76;100.00
85224;BME280;75619;51.316;4.824;2024-02-04T10:53:42;102129.88;;;10.80;100.00
85224;BME280;75619;51.316;4.824;2024-02-04T10:56:25;102126.06;;;10.86;100.00
85224;BME280;75619;51.316;4.824;2024-02-04T10:58:55;102122.41;;;10.88;100.00
85224;BME280;75619;51.316;4.824;2024-02-04T11:01:22;102136.13;;;10.95;100.00
85224;BME280;75619;51.316;4.824;2024-02-04T11:03:50;102126.31;;;10.81;100.00
85224;BME280;75619;51.316;4.824;2024-02-04T11:06:18;102122.56;;;10.85;100.00
85224;BME280;75619;51.316;4.824;2024-02-04T11:08:46;102131.50;;;10.83;100.00
85224;BME280;75619;51.316;4.824;2024-02-04T11:11:12;102121.63;;;10.86;100.00
85224;BME280;75619;51.316;4.824;2024-02-04T11:13:40;102113.69;;;10.86;100.00
85224;BME280;75619;51.316;4.824;2024-02-04T11:16:20;102118.66;;;10.92;100.00
85224;BME280;75619;51.316;4.824;2024-02-04T11:26:53;102107.44;;;11.18;100.00
85224;BME280;75619;51.316;4.824;2024-02-04T11:29:19;102106.91;;;11.27;100.00
85224;BME280;75619;51.316;4.824;2024-02-04T11:31:45;102092.25;;;11.52;100.00
85224;BME280;75619;51.316;4.824;2024-02-04T11:34:11;102092.00;;;11.56;100.00
85224;BME280;75619;51.316;4.824;2024-02-04T11:36:40;102088.13;;;11.62;100.00
85224;BME280;75619;51.316;4.824;2024-02-04T11:39:13;102089.63;;;11.66;100.00
85224;BME280;75619;51.316;4.824;2024-02-04T11:41:46;102080.69;;;11.68;100.00
85224;BME280;75619;51.316;4.824;2024-02-04T11:44:25;102082.97;;;11.74;100.00
85224;BME280;75619;51.316;4.824;2024-02-04T11:46:51;102067.56;;;11.81;100.00
85224;BME280;75619;51.316;4.824;2024-02-04T11:49:18;102075.63;;;11.79;100.00
85224;BME280;75619;51.316;4.824;2024-02-04T11:51:51;102088.63;;;11.68;100.00
85224;BME280;75619;51.316;4.824;2024-02-04T11:54:20;102080.44;;;11.73;100.00
85224;BME280;75619;51.316;4.824;2024-02-04T11:56:51;102077.47;;;11.77;100.00
85224;BME280;75619;51.316;4.824;2024-02-04T11:59:25;102063.41;;;11.91;100.00
85224;BME280;75619;51.316;4.824;2024-02-04T12:01:55;102069.19;;;11.97;100.00
85224;BME280;75619;51.316;4.824;2024-02-04T12:04:22;102067.97;;;12.03;100.00
85224;BME280;75619;51.316;4.824;2024-02-04T12:06:48;102069.00;;;12.00;100.00
85224;BME280;75619;51.316;4.824;2024-02-04T12:09:16;102065.91;;;12.08;100.00
85224;BME280;75619;51.316;4.824;2024-02-04T12:11:43;102064.56;;;12.15;100.00
85224;BME280;75619;51.316;4.824;2024-02-04T12:14:09;102063.78;;;12.13;100.00
85224;BME280;75619;51.316;4.824;2024-02-04T12:16:35;102072.59;;;12.13;100.00
85224;BME280;75619;51.316;4.824;2024-02-04T12:19:02;102069.19;;;12.26;100.00
85224;BME280;75619;51.316;4.824;2024-02-04T12:21:32;102069.66;;;12.32;100.00
85224;BME280;75619;51.316;4.824;2024-02-04T12:23:58;102081.69;;;12.24;100.00
85224;BME280;75619;51.316;4.824;2024-02-04T12:26:24;102073.25;;;12.31;100.00
85224;BME280;75619;51.316;4.824;2024-02-04T12:28:50;102064.00;;;12.24;100.00
85224;BME280;75619;51.316;4.824;2024-02-04T12:31:19;102081.50;;;12.12;100.00
85224;BME280;75619;51.316;4.824;2024-02-04T12:33:59;102068.34;;;12.11;100.00
85224;BME280;75619;51.316;4.824;2024-02-04T12:36:27;102066.66;;;12.10;100.00
85224;BME280;75619;51.316;4.824;2024-02-04T12:38:57;102065.78;;;12.09;100.00
85224;BME280;75619;51.316;4.824;2024-02-04T12:41:24;102064.28;;;12.19;100.00
85224;BME280;75619;51.316;4.824;2024-02-04T12:43:59;102065.31;;;12.17;100.00
85224;BME280;75619;51.316;4.824;2024-02-04T12:46:30;102058.03;;;12.21;100.00
85224;BME280;75619;51.316;4.824;2024-02-04T12:48:57;102058.59;;;12.11;100.00
85224;BME280;75619;51.316;4.824;2024-02-04T12:51:28;102050.91;;;12.21;100.00
85224;BME280;75619;51.316;4.824;2024-02-04T12:54:10;102049.34;;;12.18;100.00
85224;BME280;75619;51.316;4.824;2024-02-04T12:56:54;102056.22;;;12.07;100.00
85224;BME280;75619;51.316;4.824;2024-02-04T12:59:27;102057.84;;;12.09;100.00
85224;BME280;75619;51.316;4.824;2024-02-04T13:01:58;102052.91;;;12.03;100.00
85224;BME280;75619;51.316;4.824;2024-02-04T13:04:24;102059.47;;;11.98;100.00